Abraham Lincoln Capital Airport
KSPI : now visible

Airfield :











YOU CAN JOIN US ON...

 
LOGIN :

Register | Disclaimer

   EN    FR    IT 

 









Legend :    VFR   Marginal VFR   IFR   Intensive IFR   Very Intensive IFR
Visi :
Ceiling :
>= 8 km
>= 3000ft
5 to 8 km
1000 to 3000 ft
1500m to 5 km
500 to 1000 ft
800 to 1500m
200 to 500 ft
< 800m
< 200 ft
Symbols :   Thunderstorms  Fog  Heavy snow  Heavy precipitations  Wind > 20 kt






- Airport Elevation : 598 ft
- IATA code : SPI


KSPI - Abraham Lincoln Capital

CURRENT METAR :
  • 291252Z 23008KT 10SM CLR 22/12 A3021 RMK AO2 SLP226 T02170122

EXPIRED METARs :
  • 291152Z 21004KT 10SM CLR 19/12 A3020 RMK AO2 SLP222 T01890122 10194 20178 51005
  • 291052Z 21005KT 10SM CLR 18/11 A3020 RMK AO2 SLP220 T01780111

TAF KSPI
Valid from the 29 at 12:00 until the 30 at 12:00 UTC


291120Z 2912/3012 23008KT P6SM FEW100
FM300100 18006KT P6SM SKC
KZKC FIR / North America



MET'MAP, your aeronautical weather chart ! - Copyright ORBIFLY December 2007 - Disclaimer

ORBIFLY MET'MAP TEAM :

Programming & Development : Alexandra Zaïnal
Original concept : Baudouin d'Aumeries
Technical & hardware support : Manuel Goepfert
Assistance : Marc-Olivier Méhu




SOURCES & CREDITS :

   NOAA       Earth
Advisory